• Join FlightAware (Why Join?)
  • Login
  • US Flag 
07:15AM EDT


 

Airport Tracker/Info


-or-


 

Live Flight TrackerFlight Track Log ✈ TAM3821 ✈ 14-Jul-2013 ✈ SBBR / BSB - SBGL / GIG

Flight Track Log - Related Links

Times and Time Zones

All times are in EDT time to prevent confusion due to time zone crossing. See the TAM3821 flight status page for this flight to view local times or setup timezone preferences in your user account.

Time Position Orientation Groundspeed Altitude Reporting Facility
EDT Latitude Longitude Course Direction KTS MPH feet Rate Location/Type
08:21AM -15.8690 -47.9190 320° Northwest 10 12  Level FlightAware
08:23AM -15.8700 -47.9190 180° South 360 Level FlightAware
08:25AM -15.8690 -47.9190 148° Southeast 27 31 420 Level FlightAware
08:26AM -16.0946 -47.7746 148° Southeast  Level Estimated
08:26AM -15.8690 -47.9170 90° East 32 37  Level FlightAware
08:26AM -15.8680 -47.9160 44° Northeast 28 32 720 Level FlightAware
08:27AM -15.8660 -47.9160 360° North 16 18 780 Level FlightAware
08:27AM -15.8650 -47.9170 316° Northwest 28 32 840 Level FlightAware
08:28AM -15.8650 -47.9200 270° West 28 32 960 Level FlightAware
08:28AM -15.8650 -47.9210 270° West 18 21 1,080 Level FlightAware
08:29AM -15.8650 -47.9250 270° West 23 26 1,260 Level FlightAware
08:29AM -15.8650 -47.9270 270° West 16 18 1,680 Level FlightAware
08:30AM -15.8640 -47.9270 360° North 21 24 1,980 Level FlightAware
08:31AM -15.8630 -47.9140 85° East 140 161 4,260 Level FlightAware
08:31AM -15.8610 -47.8930 84° East 157 181 4,000 5,460 Climbing FlightAware
08:32AM -15.8600 -47.8720 87° East 155 178 5,100 1,920 Climbing FlightAware
08:32AM -15.8600 -47.8500 90° East 168 193 5,800 1,440 Climbing FlightAware
08:33AM -15.8590 -47.8320 87° East 181 208 6,300 1,620 Climbing FlightAware
08:33AM -15.8580 -47.8160 86° East 182 209 6,900 1,560 Climbing FlightAware
08:33AM -15.8650 -47.7990 113° Southeast 203 234 7,300 960 Climbing FlightAware
08:34AM -15.8780 -47.7920 153° Southeast 221 254 7,500 720 Climbing FlightAware
08:34AM -15.9060 -47.7840 165° South 262 302 7,800 960 Climbing FlightAware
08:34AM -15.9420 -47.7730 164° South 301 346 8,400 1,800 Climbing FlightAware
08:35AM -15.9690 -47.7650 164° South 309 356 9,300 2,700 Climbing FlightAware
08:35AM -16.0240 -47.7470 163° South 312 359 11,100 1,860 Climbing FlightAware
08:36AM -16.0920 -47.7260 163° South 362 417 12,000 1,680 Climbing FlightAware
08:37AM -16.1470 -47.7080 163° South 368 423 13,400 2,280 Climbing FlightAware
08:37AM -16.2160 -47.6860 163° South 379 436 14,900 2,100 Climbing FlightAware
08:38AM -16.2920 -47.6610 162° South 390 449 16,400 1,920 Climbing FlightAware
08:39AM -16.3640 -47.6380 163° South 403 464 17,600 1,740 Climbing FlightAware
08:40AM -16.4330 -47.6160 163° South 410 472 18,800 1,800 Climbing FlightAware
08:40AM -16.5110 -47.5910 163° South 420 483 20,100 1,740 Climbing FlightAware
08:41AM -16.5940 -47.5590 160° South 432 497 21,300 720 Climbing FlightAware
08:42AM -16.6810 -47.5140 154° Southeast 433 498 21,400 1,080 Climbing FlightAware
08:43AM -16.7760 -47.4400 143° Southeast 430 495 23,300 2,400 Climbing FlightAware
08:43AM -16.8370 -47.3480 125° Southeast 430 495 25,100 2,160 Climbing FlightAware
08:44AM -16.9040 -47.2760 134° Southeast 473 544 26,400 1,320 Climbing FlightAware
08:45AM -16.9930 -47.1780 134° Southeast 473 544 27,500 720 Climbing FlightAware
08:46AM -17.0710 -47.0910 133° Southeast 485 558 27,900 1,560 Climbing FlightAware
08:47AM -17.1410 -47.0170 135° Southeast 477 549 30,000 2,460 Climbing FlightAware
08:47AM -17.2020 -46.9500 134° Southeast 474 545 31,100 1,440 Climbing FlightAware
08:48AM -17.2520 -46.8960 134° Southeast 476 548 31,800 1,260 Climbing FlightAware
08:49AM -17.3230 -46.8180 134° Southeast 473 544 32,800 780 Climbing FlightAware
08:49AM -17.3850 -46.7490 133° Southeast 470 541 33,000 120 Climbing FlightAware
08:50AM -17.4510 -46.6770 134° Southeast 469 540 33,000  Level FlightAware
08:51AM -17.5230 -46.5960 133° Southeast 469 540 33,000  Level FlightAware
08:52AM -17.5690 -46.5450 133° Southeast 469 540 33,000  Level FlightAware
08:52AM -17.6290 -46.4770 133° Southeast 469 540 33,000  Level FlightAware
08:53AM -17.6760 -46.4250 133° Southeast 469 540 33,000  Level FlightAware
08:54AM -17.7210 -46.3740 133° Southeast 469 540 33,000  Level FlightAware
08:54AM -17.7660 -46.3230 133° Southeast 469 540 33,000  Level FlightAware
08:55AM -17.8270 -46.2550 133° Southeast 469 540 33,000  Level FlightAware
08:56AM -17.8720 -46.2040 133° Southeast 469 540 33,000  Level FlightAware
08:56AM -17.9320 -46.1360 133° Southeast 469 540 33,000  Level FlightAware
08:57AM -17.9770 -46.0850 133° Southeast 469 540 33,000  Level FlightAware
08:58AM -18.0230 -46.0330 133° Southeast 469 540 33,000  Level FlightAware
08:58AM -18.0830 -45.9650 133° Southeast 469 540 33,000  Level FlightAware
08:59AM -18.1280 -45.9140 133° Southeast 469 540 33,000  Level FlightAware
09:00AM -18.1900 -45.8450 133° Southeast 469 540 33,000  Level FlightAware
09:00AM -18.5720 -45.9490 194° South 467 537 33,000  Level FlightAware
09:01AM -18.6520 -45.9000 150° Southeast 467 537 33,000  Level FlightAware
09:02AM -18.7270 -45.8550 150° Southeast 467 537 33,000  Level FlightAware
09:02AM -18.8090 -45.8050 150° Southeast 468 539 33,000  Level FlightAware
09:03AM -18.8680 -45.7690 150° Southeast 467 537 33,000  Level FlightAware
09:04AM -18.9530 -45.7170 150° Southeast 469 540 33,000  Level FlightAware
09:04AM -19.0280 -45.6710 150° Southeast 469 540 33,000  Level FlightAware
09:05AM -19.0960 -45.6300 150° Southeast 469 540 33,000  Level FlightAware
09:06AM -19.1770 -45.5800 150° Southeast 469 540 33,000  Level FlightAware
09:06AM -19.2560 -45.5320 150° Southeast 469 540 33,000  Level FlightAware
09:07AM -19.3340 -45.4840 150° Southeast 469 540 33,000  Level FlightAware
09:08AM -19.3950 -45.4450 149° Southeast 469 540 33,000  Level FlightAware
09:09AM -19.4800 -45.3930 150° Southeast 469 540 33,000  Level FlightAware
09:09AM -19.5400 -45.3550 149° Southeast 469 540 33,000  Level FlightAware
09:10AM -19.6160 -45.3070 149° Southeast 469 540 33,000  Level FlightAware
09:11AM -19.7010 -45.2520 149° Southeast 469 540 33,000  Level FlightAware
09:12AM -19.7760 -45.2050 149° Southeast 469 540 33,000  Level FlightAware
09:12AM -19.8870 -45.1420 152° Southeast 469 540 33,000  Level FlightAware
09:13AM -19.9870 -45.0790 149° Southeast 470 541 33,000  Level FlightAware
09:14AM -20.0610 -45.0330 150° Southeast 470 541 33,000  Level FlightAware
09:15AM -20.1980 -44.9470 149° Southeast 470 541 33,000  Level FlightAware
09:16AM -20.1993 -44.9448 149° Southeast  Level Estimated
09:16AM -20.3170 -44.8730 150° Southeast 470 541 33,000  Level FlightAware
09:17AM -20.3810 -44.8330 150° Southeast 470 541 33,000 -180 Level FlightAware
09:17AM -20.4660 -44.7790 149° Southeast 468 539 32,800 -720 Descending FlightAware
09:18AM -20.5570 -44.7210 149° Southeast 466 536 31,900 -1,140 Descending FlightAware
09:19AM -20.6550 -44.6600 150° Southeast 475 547 31,000 -660 Descending FlightAware
09:20AM -20.7250 -44.6150 149° Southeast 474 545 31,000  Level FlightAware
09:20AM -20.7960 -44.5710 150° Southeast 472 543 31,000  Level FlightAware
09:21AM -20.8810 -44.5160 149° Southeast 471 542 31,000  Level FlightAware
09:22AM -20.9930 -44.4460 150° Southeast 472 543 31,000  Level FlightAware
09:23AM -21.1190 -44.3660 149° Southeast 472 543 31,000 -240 Level FlightAware
09:24AM -21.2070 -44.3100 149° Southeast 471 542 30,600 -900 Descending FlightAware
09:25AM -21.3260 -44.2340 149° Southeast 471 542 29,400 -1,560 Descending FlightAware
09:26AM -21.4070 -44.1810 149° Southeast 452 520 27,900 -2,100 Descending FlightAware
09:26AM -21.4780 -44.1360 149° Southeast 450 518 26,600 -1,980 Descending FlightAware
09:27AM -21.5390 -44.0960 149° Southeast 436 502 25,400 -1,260 Descending FlightAware
09:28AM -21.6050 -44.0520 148° Southeast 432 497 24,900 -420 Descending FlightAware
09:28AM -21.6570 -44.0180 149° Southeast 432 497 24,900 -2,640 Level FlightAware
09:29AM -21.7320 -43.9710 150° Southeast 418 481 21,700 -3,420 Descending FlightAware
09:30AM -21.8100 -43.9200 149° Southeast 409 471 20,300 -1,920 Descending FlightAware
09:30AM -21.8720 -43.8800 149° Southeast 400 460 19,100 -1,740 Descending FlightAware
09:31AM -21.9370 -43.8370 148° Southeast 393 452 18,000 -1,740 Descending FlightAware
09:32AM -21.9990 -43.7970 149° Southeast 386 444 16,800 -1,740 Descending FlightAware
09:32AM -22.0530 -43.7620 149° Southeast 382 440 15,800 -1,500 Descending FlightAware
09:33AM -22.1010 -43.7310 149° Southeast 384 442 14,800 -1,680 Descending FlightAware
09:34AM -22.1700 -43.6850 148° Southeast 377 434 13,500 -1,980 Descending FlightAware
09:34AM -22.2480 -43.6340 149° Southeast 368 423 12,100 -1,620 Descending FlightAware
09:35AM -22.3090 -43.5940 149° Southeast 354 407 11,000 -1,140 Descending FlightAware
09:36AM -22.3820 -43.5470 149° Southeast 315 362 10,000 -1,140 Descending FlightAware
09:36AM -22.3960 -43.5440 169° South 306 352 9,800 -1,500 Descending FlightAware
09:37AM -22.4420 -43.5560 194° South 286 329 9,200 -1,320 Descending FlightAware
09:37AM -22.4680 -43.5650 198° South 284 327 8,600 -1,260 Descending FlightAware
09:37AM -22.4850 -43.5710 198° South 285 328 8,200 -720 Descending FlightAware
09:38AM -22.5800 -43.6030 197° South 289 333 7,700 -540 Descending FlightAware
09:39AM -22.6090 -43.6120 196° South 286 329 7,400 -540 Descending FlightAware
09:40AM -22.6480 -43.6230 195° South 270 311 7,100 -1,200 Descending FlightAware
09:40AM -22.6560 -43.5950 107° East 261 300 6,600 -1,500 Descending FlightAware
09:40AM -22.6750 -43.5610 121° Southeast 252 290 6,100 -900 Descending FlightAware
09:41AM -22.6880 -43.5390 123° Southeast 239 275 5,800 -360 Descending FlightAware
09:41AM -22.7010 -43.5150 120° Southeast 239 275 5,800 -1,380 Level FlightAware
09:42AM -22.7210 -43.4560 110° East 224 258 4,000 -1,860 Descending FlightAware
09:42AM -22.7230 -43.4290 95° East 217 250 3,500 -1,620 Descending FlightAware
09:43AM -22.7240 -43.4020 92° East 211 243 2,800 -1,200 Descending FlightAware
09:43AM -22.7430 -43.3690 122° Southeast 183 211 2,200 -960 Descending FlightAware
09:44AM -22.7540 -43.3520 125° Southeast 170 196 1,800 -960 Descending FlightAware
09:44AM -22.7680 -43.3310 126° Southeast 156 180 1,300 -540 Descending FlightAware
09:45AM -22.7780 -43.3160 126° Southeast 156 180 1,300 -780 Level FlightAware
09:46AM -22.7970 -43.2870 125° Southeast 150 173 400 -1,200 Descending FlightAware
09:47AM -22.8200 -43.2530 126° Southeast 150 173 -480 Descending FlightAware
09:47AM -22.8090 -43.2410 45° Northeast 150 173  Level FlightAware
09:48AM -22.8220 -43.2430 188° South  Level FlightAware
09:49AM -22.8210 -43.2450 298° West  Level FlightAware
09:49AM -22.8190 -43.2460 335° Northwest  Level FlightAware
09:50AM -22.8180 -43.2450 43° Northeast  Level FlightAware
09:51AM -22.8160 -43.2480 306° West  Level FlightAware
09:52AM -22.8150 -43.2480 360° North  Level FlightAware
09:55AM -22.8089 -43.2436 33° Northeast  Level Estimated
09:56AM -22.8089 -43.2436 137° Southeast  Level Estimated
09:57AM -22.8089 -43.2436 137° Southeast  Level Estimated
09:58AM -22.8089 -43.2436 137° Southeast  Level Estimated
09:59AM -22.8089 -43.2436 137° Southeast  Level Estimated
10:00AM -22.8089 -43.2436 137° Southeast  Level Estimated
10:01AM -22.8089 -43.2436 137° Southeast  Level Estimated
10:02AM -22.8089 -43.2436 137° Southeast  Level Estimated
10:03AM -22.8089 -43.2436 137° Southeast  Level Estimated
10:04AM -22.8089 -43.2436 137° Southeast  Level Estimated
10:05AM -22.8089 -43.2436 137° Southeast  Level Estimated
10:06AM -22.8089 -43.2436 137° Southeast  Level Estimated
10:07AM -22.8089 -43.2436 137° Southeast  Level Estimated
10:08AM -22.8089 -43.2436 137° Southeast  Level Estimated
10:09AM -22.8089 -43.2436 137° Southeast  Level Estimated
10:10AM -22.8089 -43.2436 137° Southeast  Level Estimated
10:11AM -22.8089 -43.2436 137° Southeast  Level Estimated
10:12AM -22.8089 -43.2436 137° Southeast  Level Estimated
10:13AM -22.8089 -43.2436 137° Southeast  Level Estimated
10:14AM -22.8089 -43.2436 137° Southeast  Level Estimated
10:15AM -22.8089 -43.2436 137° Southeast  Level Estimated
10:16AM -22.8089 -43.2436 137° Southeast  Level Estimated
10:17AM -22.8089 -43.2436 137° Southeast  Level Estimated
10:18AM -22.8089 -43.2436 137° Southeast  Level Estimated